Galt, IA (50101)

2:10 AM CDT on August 31, 2014 (GMT -0500)
Clarion Municipal | Change Station
CLOSE
Current Station
Airport
Location: Clarion,
Elevation: 1161 ft
Nearby Weather Stations

Elev 1161 ft 42.74 °N, 93.76 °W | Updated 15 minutes ago

Clear
Clear
61 °F
Feels Like 61 °F
N
6
Wind Variable Wind from ESE

Today
High -- | Low -- °F
--% Chance of Precip.
Yesterday
High -- | Low -- °F
Precip. -- in
6:38 AM 7:50 PM
Waxing Crescent, 28% visible
Pressure 29.89 in
Visibility 10.0 miles
Clouds Clear
Dew Point 61 °F
Humidity 100%
Rainfall 0.00 in
Snow Depth Not available.
UV 0 out of 12
Pollen 6.70 out of 12
Air Quality Not available.
Flu Activity Not available.
METAR KCAV 310655Z AUTO 12005KT 10SM CLR 16/16 A2989 RMK AO2

More Conditions Fewer Conditions

Pressure 29.89 in
Visibility 10.0 miles
Clouds Clear
Dew Point 61 °F
Humidity 100%
Rainfall 0.00 in
Snow Depth Not available.
UV 0 out of 12
Pollen 6.70 out of 12
Air Quality Not available.
Flu Activity Not available.
METAR KCAV 310655Z AUTO 12005KT 10SM CLR 16/16 A2989 RMK AO2

More Conditions Fewer Conditions

10-Day Weather Forecast

Almanac

Astronomy

Aug. 31, 2014 Rise Set
Actual Time 6:38 AM CDT 7:50 PM CDT
Civil Twilight 6:09 AM CDT 8:19 PM CDT
Nautical Twilight 5:34 AM CDT 8:54 PM CDT
Astronomical Twilight 4:57 AM CDT 9:30 PM CDT
Moon 12:33 PM CDT 10:57 PM CDT
Length of Visible Light 14h 10m
Length of Day
13h 12m
Tomorrow will be 2m 46s shorter.
Waxing Crescent, 28% of the Moon is Illuminated
Today
Waxing Crescent
Sep 2
First Quarter
Sep 8
Full
Sep 15
Last Quarter
Sep 24
New

Today's Extremes

State Highs State Lows

Community

WunderPhotos

Upload Photos

1,748,806 photos uploaded!

Nearby

Snow Depth

Station Depth Elevation
No new snow has been reported.

Earthquake Activity

City Distance Mag. Time & Date
No recent earthquake activity has been reported nearby.
Minimum magnitude displayed is 2.5.

Coastal Water Temperatures

Place Temperature
No Stations Reporting

Nearby Weather Stations